Time;durP1;ratioP1;P1;durP2;ratioP2;P2;SDS_P1;SDS_P2;PMS_P1;PMS_P2;Temp;Humidity;BMP_temperature;BMP_pressure;BME280_temperature;BME280_humidity;BME280_pressure;Samples;Min_cycle;Max_cycle;Signal;HPM_P1;HPM_P2
2024/04/10 00:02:06;;;;;;;6.45;3.25;;;17.80;96.70;;;;;;5471548;26;20007;-74
2024/04/10 00:04:37;;;;;;;6.63;3.60;;;17.70;96.70;;;;;;5459447;26;20015;-74
2024/04/10 00:07:06;;;;;;;6.15;3.00;;;17.50;96.70;;;;;;5460618;26;20038;-74
2024/04/10 00:09:37;;;;;;;7.03;3.17;;;17.40;96.70;;;;;;5438779;26;20091;-74
2024/04/10 00:12:06;;;;;;;4.07;2.15;;;17.20;96.70;;;;;;5470520;26;19994;-76
2024/04/10 00:14:37;;;;;;;7.10;2.47;;;17.00;96.70;;;;;;5400204;26;20007;-75
2024/04/10 00:17:09;;;;;;;4.95;2.63;;;16.90;96.70;;;;;;5464020;26;20481;-75
2024/04/10 00:19:41;;;;;;;5.45;2.15;;;16.80;96.70;;;;;;5467851;26;20010;-76
2024/04/10 00:22:10;;;;;;;6.30;2.15;;;16.60;96.70;;;;;;5448274;26;20009;-75
2024/04/10 00:24:38;;;;;;;4.43;1.75;;;16.30;96.70;;;;;;5457880;26;20027;-74
2024/04/10 00:27:07;;;;;;;10.38;2.38;;;16.30;96.70;;;;;;5472503;26;19998;-76
2024/04/10 00:29:36;;;;;;;4.68;1.60;;;16.20;96.70;;;;;;5443067;26;19999;-76
2024/04/10 00:32:05;;;;;;;6.63;2.30;;;16.20;96.70;;;;;;5443029;26;20071;-77
2024/04/10 00:34:36;;;;;;;9.57;2.10;;;16.20;96.70;;;;;;5457163;26;20355;-76
2024/04/10 00:37:05;;;;;;;6.90;2.10;;;16.20;96.70;;;;;;5424831;26;20029;-76
2024/04/10 00:39:33;;;;;;;10.52;2.72;;;16.10;96.70;;;;;;5443986;26;21384;-76
2024/04/10 00:42:02;;;;;;;7.47;2.38;;;16.10;96.70;;;;;;5415266;26;20045;-75
2024/04/10 00:44:31;;;;;;;8.05;2.33;;;16.10;96.70;;;;;;5422503;26;20011;-76
2024/04/10 00:46:59;;;;;;;10.30;2.63;;;16.20;96.70;;;;;;5430414;26;20006;-76
2024/04/10 00:49:28;;;;;;;6.63;1.80;;;16.30;96.70;;;;;;5441795;26;20007;-76
2024/04/10 00:52:02;;;;;;;7.40;2.45;;;16.30;96.70;;;;;;5424012;26;19998;-76
2024/04/10 00:54:34;;;;;;;7.93;2.92;;;16.20;96.70;;;;;;5422082;26;19999;-76
2024/04/10 00:57:04;;;;;;;9.23;2.30;;;16.30;96.70;;;;;;5429160;26;20013;-75
2024/04/10 00:59:33;;;;;;;9.38;2.10;;;16.20;96.70;;;;;;5444415;26;19994;-76
2024/04/10 01:02:04;;;;;;;9.48;2.08;;;16.10;96.70;;;;;;5412272;26;20418;-76
2024/04/10 01:04:32;;;;;;;6.43;1.50;;;16.00;96.70;;;;;;5445552;26;20010;-76
2024/04/10 01:07:10;;;;;;;7.60;1.88;;;15.90;96.70;;;;;;5446862;26;20014;-75
2024/04/10 01:09:40;;;;;;;7.10;1.83;;;15.90;96.70;;;;;;5413273;26;20031;-76
2024/04/10 01:12:08;;;;;;;7.47;1.90;;;15.90;96.70;;;;;;5437287;26;20016;-76
2024/04/10 01:14:37;;;;;;;7.40;1.80;;;15.80;96.70;;;;;;5444006;26;20006;-75
2024/04/10 01:17:07;;;;;;;6.75;1.58;;;15.70;96.70;;;;;;5451451;26;20010;-76
2024/04/10 01:19:37;;;;;;;5.72;1.63;;;15.70;96.70;;;;;;5434124;26;20011;-75
2024/04/10 01:22:06;;;;;;;5.32;1.10;;;15.60;96.70;;;;;;5415331;26;20039;-76
2024/04/10 01:24:37;;;;;;;7.25;1.15;;;15.50;96.70;;;;;;5431685;26;19998;-76
2024/04/10 01:27:13;;;;;;;4.97;0.85;;;15.50;96.70;;;;;;5410335;26;20003;-76
2024/04/10 01:29:42;;;;;;;7.20;1.10;;;15.40;96.70;;;;;;5456068;26;20003;-76
2024/04/10 01:32:12;;;;;;;7.03;1.30;;;15.40;96.70;;;;;;5442703;26;20458;-76
2024/04/10 01:34:43;;;;;;;7.85;0.93;;;15.40;96.70;;;;;;5416784;26;20050;-76
2024/04/10 01:37:12;;;;;;;3.75;0.68;;;15.40;96.70;;;;;;5436009;26;20085;-75
2024/04/10 01:39:50;;;;;;;3.45;0.60;;;15.40;96.70;;;;;;5422807;26;20011;-76
2024/04/10 01:42:22;;;;;;;4.55;0.80;;;15.40;96.70;;;;;;5456962;26;20130;-76
2024/04/10 01:44:51;;;;;;;3.03;0.95;;;15.50;96.70;;;;;;5427580;26;19998;-75
2024/04/10 01:47:21;;;;;;;3.88;0.50;;;15.50;96.70;;;;;;5404015;26;19998;-76
2024/04/10 01:49:50;;;;;;;5.90;1.02;;;15.40;96.70;;;;;;5438927;26;19995;-76
2024/04/10 01:52:19;;;;;;;5.03;0.65;;;15.40;96.70;;;;;;5443798;26;20013;-76
2024/04/10 01:54:53;;;;;;;4.68;1.00;;;15.30;96.70;;;;;;5416055;26;20011;-75
2024/04/10 01:57:26;;;;;;;5.22;0.95;;;15.30;96.70;;;;;;5466721;26;19999;-75
2024/04/10 01:59:56;;;;;;;2.72;0.68;;;15.20;96.70;;;;;;5458292;26;20762;-76
2024/04/10 02:02:25;;;;;;;3.30;0.70;;;15.20;96.70;;;;;;5454043;26;20363;-76
2024/04/10 02:05:00;;;;;;;2.65;0.75;;;15.20;96.70;;;;;;5450559;26;20328;-75
2024/04/10 02:07:32;;;;;;;5.47;0.70;;;15.20;96.70;;;;;;5422818;26;20014;-76
2024/04/10 02:10:04;;;;;;;3.20;0.70;;;15.10;96.70;;;;;;5446821;26;20040;-77
2024/04/10 02:12:33;;;;;;;4.68;0.52;;;15.10;96.70;;;;;;5442270;26;20013;-76
2024/04/10 02:15:01;;;;;;;5.53;0.85;;;15.10;96.70;;;;;;5421129;26;20010;-75
2024/04/10 02:17:30;;;;;;;3.15;0.73;;;15.20;96.70;;;;;;5457558;26;20504;-75
2024/04/10 02:20:03;;;;;;;5.25;0.63;;;15.20;96.70;;;;;;5469552;26;20018;-75
2024/04/10 02:22:32;;;;;;;3.67;0.85;;;15.10;96.70;;;;;;5418894;26;20412;-76
2024/04/10 02:25:04;;;;;;;6.70;0.88;;;15.00;96.70;;;;;;5460645;26;20002;-77
2024/04/10 02:27:32;;;;;;;6.90;1.00;;;14.90;96.70;;;;;;5417072;26;20018;-78
2024/04/10 02:30:01;;;;;;;4.97;0.77;;;14.90;96.70;;;;;;5466000;26;20017;-77
2024/04/10 02:32:30;;;;;;;2.65;0.50;;;14.70;96.70;;;;;;5442970;26;20013;-77
2024/04/10 02:34:59;;;;;;;4.45;1.27;;;14.60;96.70;;;;;;5413107;26;20007;-76
2024/04/10 02:37:28;;;;;;;3.40;0.50;;;14.50;96.70;;;;;;5448381;26;20007;-76
2024/04/10 02:40:00;;;;;;;3.95;0.50;;;14.40;96.70;;;;;;5420093;26;20003;-76
2024/04/10 02:42:57;;;;;;;2.58;0.60;;;14.40;96.70;;;;;;5427912;26;20007;-76
2024/04/10 02:46:15;;;;;;;2.58;0.60;;;14.30;96.70;;;;;;5417503;26;20460;-76
2024/04/10 02:48:47;;;;;;;1.67;0.20;;;14.00;96.70;;;;;;5415032;26;20002;-76
2024/04/10 02:51:16;;;;;;;1.75;0.20;;;13.90;96.70;;;;;;5428264;26;20010;-76
2024/04/10 02:53:45;;;;;;;0.45;0.20;;;13.90;96.70;;;;;;5412517;26;20324;-77
2024/04/10 02:56:14;;;;;;;3.67;0.50;;;14.10;96.70;;;;;;5419159;26;19999;-76
2024/04/10 02:58:45;;;;;;;1.85;0.30;;;14.10;96.70;;;;;;5439193;26;20764;-76
2024/04/10 03:01:15;;;;;;;3.65;0.30;;;14.10;96.70;;;;;;5460201;26;20003;-77
2024/04/10 03:03:43;;;;;;;1.48;0.30;;;14.20;96.70;;;;;;5445165;26;19999;-76
2024/04/10 03:06:12;;;;;;;3.38;0.50;;;14.20;96.70;;;;;;5429971;26;20458;-76
2024/04/10 03:08:40;;;;;;;2.05;0.50;;;14.20;96.70;;;;;;5446454;26;20013;-75
2024/04/10 03:11:10;;;;;;;1.95;0.43;;;14.10;96.70;;;;;;5426420;26;20050;-76
2024/04/10 03:13:39;;;;;;;2.75;0.30;;;13.90;96.70;;;;;;5446010;26;20374;-76
2024/04/10 03:16:11;;;;;;;2.85;0.45;;;14.00;96.70;;;;;;5472353;26;20071;-76
2024/04/10 03:18:40;;;;;;;1.38;0.20;;;14.20;96.70;;;;;;5465641;26;20060;-76
2024/04/10 03:21:18;;;;;;;1.88;0.22;;;14.40;96.70;;;;;;5417999;26;20010;-76
2024/04/10 03:23:57;;;;;;;2.45;0.20;;;14.60;96.70;;;;;;5451442;26;20053;-76
2024/04/10 03:26:25;;;;;;;3.25;0.50;;;14.60;96.70;;;;;;5456098;26;19998;-76
2024/04/10 03:28:54;;;;;;;1.23;0.35;;;14.60;96.70;;;;;;5422567;26;19998;-76
2024/04/10 03:31:26;;;;;;;1.58;0.20;;;14.50;96.70;;;;;;5411876;26;20514;-76
2024/04/10 03:33:55;;;;;;;1.10;0.17;;;14.50;96.70;;;;;;5419137;26;20108;-75
2024/04/10 03:36:24;;;;;;;0.40;0.30;;;14.60;96.70;;;;;;5424541;26;19999;-76
2024/04/10 03:38:54;;;;;;;3.13;0.32;;;14.70;96.70;;;;;;5412171;26;20672;-76
2024/04/10 03:41:23;;;;;;;1.02;0.28;;;14.60;96.70;;;;;;5443383;26;20647;-76
2024/04/10 03:43:53;;;;;;;1.13;0.10;;;14.70;96.70;;;;;;5443080;26;20019;-76
2024/04/10 03:46:25;;;;;;;2.08;0.20;;;14.70;96.70;;;;;;5444285;26;20309;-76
2024/04/10 03:48:59;;;;;;;3.08;0.30;;;14.70;96.70;;;;;;5444206;26;20010;-76
2024/04/10 03:51:29;;;;;;;1.52;0.38;;;14.70;96.70;;;;;;5414095;26;20071;-76
2024/04/10 03:53:58;;;;;;;1.27;0.30;;;14.60;96.70;;;;;;5432438;26;19999;-76
2024/04/10 03:56:29;;;;;;;1.65;0.35;;;14.60;96.70;;;;;;5441874;26;20389;-76
2024/04/10 03:59:01;;;;;;;2.50;0.40;;;14.70;96.70;;;;;;5443503;26;20011;-76
2024/04/10 04:01:35;;;;;;;0.85;0.20;;;14.60;96.70;;;;;;5413959;26;20018;-76
2024/04/10 04:04:05;;;;;;;1.77;0.25;;;14.60;96.70;;;;;;5413275;26;20022;-77
2024/04/10 04:06:45;;;;;;;0.93;0.30;;;14.60;96.70;;;;;;5428076;26;20091;-76
2024/04/10 04:09:14;;;;;;;1.63;0.30;;;14.70;96.70;;;;;;5443371;26;19999;-76
2024/04/10 04:11:42;;;;;;;0.90;0.20;;;14.60;96.70;;;;;;5443395;26;20030;-76
2024/04/10 04:14:11;;;;;;;0.35;0.15;;;14.70;96.70;;;;;;5412894;26;20410;-76
2024/04/10 04:16:43;;;;;;;2.30;0.38;;;14.70;96.70;;;;;;5412545;26;20449;-75
2024/04/10 04:19:12;;;;;;;2.33;0.43;;;14.70;96.70;;;;;;5436770;26;20436;-75
2024/04/10 04:21:41;;;;;;;2.38;0.28;;;14.80;96.70;;;;;;5443276;26;20006;-76
2024/04/10 04:24:09;;;;;;;2.22;0.30;;;14.70;96.70;;;;;;5443190;26;20014;-76
2024/04/10 04:26:41;;;;;;;1.25;0.30;;;14.70;96.70;;;;;;5411804;26;20032;-75
2024/04/10 04:29:10;;;;;;;2.22;0.30;;;14.60;96.70;;;;;;5441988;26;19999;-75
2024/04/10 04:31:39;;;;;;;1.75;0.30;;;14.70;96.70;;;;;;5412317;26;20412;-76
2024/04/10 04:34:12;;;;;;;2.33;0.40;;;14.80;96.70;;;;;;5441910;26;20339;-76
2024/04/10 04:36:42;;;;;;;0.98;0.32;;;14.80;96.70;;;;;;5439680;26;20010;-75
2024/04/10 04:39:13;;;;;;;2.38;0.30;;;14.80;96.70;;;;;;5439417;26;20006;-75
2024/04/10 04:41:41;;;;;;;3.97;0.55;;;14.70;96.70;;;;;;5406828;26;20356;-75
2024/04/10 04:44:12;;;;;;;3.05;0.30;;;14.60;96.70;;;;;;5410798;26;20011;-76
2024/04/10 04:46:41;;;;;;;2.03;0.65;;;14.60;96.70;;;;;;5440178;26;20010;-75
2024/04/10 04:49:13;;;;;;;4.65;0.73;;;14.70;96.70;;;;;;5439898;26;20537;-75
2024/04/10 04:51:42;;;;;;;1.70;0.20;;;14.70;96.70;;;;;;5405840;26;19996;-75
2024/04/10 04:54:10;;;;;;;2.03;0.40;;;14.70;96.70;;;;;;5442117;26;20018;-76
2024/04/10 04:56:39;;;;;;;2.45;0.40;;;14.70;96.70;;;;;;5442565;26;20764;-75
2024/04/10 04:59:10;;;;;;;3.00;0.40;;;14.70;96.70;;;;;;5413121;26;20929;-76
2024/04/10 05:01:38;;;;;;;2.45;0.43;;;14.70;96.70;;;;;;5413713;26;20015;-76
2024/04/10 05:06:58;;;;;;;3.50;0.45;;;14.60;96.70;;;;;;5443500;26;19999;-76
2024/04/10 05:09:27;;;;;;;1.95;0.20;;;14.60;96.70;;;;;;5413271;26;20010;-75
2024/04/10 05:11:56;;;;;;;1.63;0.38;;;14.50;96.70;;;;;;5413108;26;20006;-75
2024/04/10 05:14:27;;;;;;;0.77;0.20;;;14.40;96.70;;;;;;5442231;26;20013;-75
2024/04/10 05:16:55;;;;;;;3.25;0.43;;;14.40;96.70;;;;;;5398337;26;19999;-75
2024/04/10 05:19:25;;;;;;;1.90;0.40;;;14.40;96.70;;;;;;5441033;26;20006;-76
2024/04/10 05:21:53;;;;;;;1.95;0.30;;;14.40;96.70;;;;;;5407372;26;20007;-76
2024/04/10 05:24:25;;;;;;;0.85;0.15;;;14.50;96.70;;;;;;5412123;26;19995;-76
2024/04/10 05:26:54;;;;;;;1.92;0.20;;;14.30;96.70;;;;;;5441490;26;20089;-75
2024/04/10 05:29:24;;;;;;;1.77;0.30;;;14.30;96.70;;;;;;5440804;26;20056;-76
2024/04/10 05:31:53;;;;;;;1.15;0.22;;;14.20;96.70;;;;;;5406072;26;20033;-75
2024/04/10 05:34:22;;;;;;;1.20;0.40;;;14.10;96.70;;;;;;5411298;26;19995;-76
2024/04/10 05:36:51;;;;;;;2.15;0.30;;;14.20;96.70;;;;;;5434680;26;20005;-75
2024/04/10 05:44:45;;;;;;;0.75;0.20;;;14.20;96.70;;;;;;5426600;26;20344;-75
2024/04/10 05:47:14;;;;;;;1.98;0.30;;;14.30;96.70;;;;;;5424393;26;20000;-75
2024/04/10 05:49:48;;;;;;;2.10;0.20;;;14.40;96.70;;;;;;5396511;26;19995;-74
2024/04/10 05:52:17;;;;;;;2.22;0.20;;;14.30;96.70;;;;;;5435339;26;20125;-74
2024/04/10 05:54:49;;;;;;;2.17;0.40;;;14.40;96.70;;;;;;5394390;26;20324;-74
2024/04/10 05:57:18;;;;;;;2.40;0.85;;;14.60;96.70;;;;;;5430053;26;20252;-74
2024/04/10 05:59:51;;;;;;;2.85;0.55;;;14.70;96.70;;;;;;5405115;26;20080;-74
2024/04/10 06:02:22;;;;;;;5.38;1.00;;;14.80;96.70;;;;;;5395078;26;20455;-74
2024/04/10 06:04:55;;;;;;;2.35;0.50;;;14.70;96.70;;;;;;5405219;26;20022;-74
2024/04/10 06:07:25;;;;;;;1.10;0.30;;;14.70;96.70;;;;;;5395207;26;20900;-74
2024/04/10 06:09:55;;;;;;;3.47;0.40;;;14.70;96.70;;;;;;5424429;26;20027;-73
2024/04/10 06:12:24;;;;;;;2.05;0.60;;;14.50;96.70;;;;;;5422903;26;20469;-73
2024/04/10 06:14:57;;;;;;;1.63;0.40;;;14.50;96.70;;;;;;5423723;26;20373;-73
2024/04/10 06:17:26;;;;;;;3.05;0.52;;;14.50;96.70;;;;;;5424645;26;20399;-73
2024/04/10 06:19:56;;;;;;;1.95;0.60;;;14.40;96.70;;;;;;5423486;26;19999;-73
2024/04/10 06:22:24;;;;;;;2.90;0.30;;;14.50;96.70;;;;;;5423385;26;20391;-73
2024/04/10 06:24:53;;;;;;;2.15;0.30;;;14.50;96.70;;;;;;5453590;26;20010;-73
2024/04/10 06:27:23;;;;;;;3.20;0.73;;;14.60;96.70;;;;;;5423042;26;20019;-75
2024/04/10 06:29:51;;;;;;;2.38;0.50;;;14.70;96.70;;;;;;5440842;26;20031;-75
2024/04/10 06:32:22;;;;;;;1.30;0.40;;;14.70;96.70;;;;;;5406399;26;20015;-74
2024/04/10 06:34:52;;;;;;;2.53;0.57;;;14.80;96.70;;;;;;5392248;26;20011;-74
2024/04/10 06:37:21;;;;;;;5.10;1.40;;;14.80;96.70;;;;;;5451668;26;20003;-74
2024/04/10 06:39:50;;;;;;;4.15;1.00;;;14.90;96.70;;;;;;5423321;26;20007;-74
2024/04/10 06:42:19;;;;;;;3.92;0.80;;;14.90;96.70;;;;;;5400750;26;20072;-74
2024/04/10 06:44:49;;;;;;;4.25;0.60;;;14.80;96.70;;;;;;5423646;26;20578;-74
2024/04/10 06:47:22;;;;;;;3.33;0.70;;;14.80;96.70;;;;;;5393106;26;20003;-74
2024/04/10 06:49:53;;;;;;;1.75;0.30;;;14.80;96.70;;;;;;5422767;26;20003;-74
2024/04/10 06:52:22;;;;;;;1.73;0.43;;;14.90;96.70;;;;;;5409849;26;20028;-74
2024/04/10 06:54:51;;;;;;;3.15;0.55;;;14.90;96.70;;;;;;5408209;26;20013;-74
2024/04/10 06:57:19;;;;;;;2.78;0.40;;;14.90;96.70;;;;;;5402516;26;20390;-74
2024/04/10 06:59:50;;;;;;;2.00;0.50;;;15.00;96.70;;;;;;5408149;26;20003;-73
2024/04/10 07:02:21;;;;;;;4.60;0.95;;;14.90;96.70;;;;;;5408627;26;20003;-74
2024/04/10 07:04:51;;;;;;;3.33;0.68;;;15.00;96.70;;;;;;5407856;26;20011;-74
2024/04/10 07:07:25;;;;;;;3.78;1.17;;;14.90;96.70;;;;;;5407680;26;20359;-74
2024/04/10 07:09:56;;;;;;;4.03;1.13;;;14.90;96.70;;;;;;5379337;26;19999;-74
2024/04/10 07:12:26;;;;;;;2.78;0.50;;;15.00;96.70;;;;;;5406680;26;20003;-74
2024/04/10 07:14:57;;;;;;;2.70;0.45;;;14.90;96.70;;;;;;5379053;26;20008;-74
2024/04/10 07:17:30;;;;;;;1.95;0.35;;;14.90;96.70;;;;;;5408209;26;19999;-75
2024/04/10 07:20:00;;;;;;;0.98;0.30;;;15.00;96.70;;;;;;5378970;26;20468;-74
2024/04/10 07:22:29;;;;;;;2.20;0.43;;;15.00;96.70;;;;;;5406681;26;20073;-73
2024/04/10 07:24:58;;;;;;;2.67;0.45;;;15.00;96.70;;;;;;5420145;26;20099;-73
2024/04/10 07:27:26;;;;;;;1.85;0.40;;;15.00;96.70;;;;;;5408084;26;20581;-74
2024/04/10 07:29:58;;;;;;;1.17;0.35;;;15.00;96.70;;;;;;5408487;26;20014;-75
2024/04/10 07:32:30;;;;;;;2.35;0.28;;;15.00;96.70;;;;;;5378485;26;20035;-74
2024/04/10 07:35:01;;;;;;;2.90;0.35;;;15.10;96.70;;;;;;5378148;26;20014;-74
2024/04/10 07:37:31;;;;;;;4.13;0.38;;;15.30;96.70;;;;;;5406802;26;20007;-75
2024/04/10 07:40:02;;;;;;;2.28;0.40;;;15.30;96.70;;;;;;5407635;26;20437;-74
2024/04/10 07:42:32;;;;;;;1.42;0.50;;;15.30;96.70;;;;;;5406989;26;20527;-74
2024/04/10 07:45:03;;;;;;;3.67;0.80;;;15.40;96.70;;;;;;5408207;26;20072;-73
2024/04/10 07:47:35;;;;;;;6.38;1.38;;;15.50;96.70;;;;;;5435977;26;20017;-75
2024/04/10 07:50:05;;;;;;;4.15;1.30;;;15.60;96.70;;;;;;5407306;26;20014;-74
2024/04/10 07:52:34;;;;;;;2.80;1.52;;;15.60;96.70;;;;;;5407161;26;20004;-74
2024/04/10 07:55:05;;;;;;;3.83;1.83;;;15.60;96.70;;;;;;5406736;26;20053;-74
2024/04/10 07:57:35;;;;;;;2.58;1.40;;;15.60;96.70;;;;;;5436540;26;19995;-74
2024/04/10 08:00:08;;;;;;;3.20;0.90;;;15.50;96.70;;;;;;5406807;26;20018;-74
2024/04/10 08:02:42;;;;;;;2.88;0.50;;;15.50;96.70;;;;;;5406101;26;20277;-75
2024/04/10 08:05:11;;;;;;;3.10;0.57;;;15.40;96.70;;;;;;5407489;26;20438;-74
2024/04/10 08:07:41;;;;;;;1.92;0.40;;;15.50;96.70;;;;;;5406969;26;20012;-75
2024/04/10 08:10:09;;;;;;;1.15;0.30;;;15.50;96.70;;;;;;5406879;26;19996;-74
2024/04/10 08:12:39;;;;;;;2.25;0.40;;;15.70;96.70;;;;;;5376407;26;20003;-74
2024/04/10 08:15:11;;;;;;;0.80;0.20;;;15.60;96.70;;;;;;5407244;26;19996;-74
2024/04/10 08:17:45;;;;;;;1.25;0.32;;;15.60;96.70;;;;;;5407960;26;20023;-75
2024/04/10 08:20:17;;;;;;;0.82;0.17;;;15.70;96.70;;;;;;5406768;26;20756;-75
2024/04/10 08:22:46;;;;;;;1.75;0.20;;;15.70;96.70;;;;;;5436168;26;20018;-74
2024/04/10 08:25:16;;;;;;;1.58;0.20;;;15.70;96.70;;;;;;5406845;26;20334;-75
2024/04/10 08:27:49;;;;;;;3.15;0.30;;;15.70;96.70;;;;;;5379084;26;20014;-75
2024/04/10 08:30:20;;;;;;;3.00;0.50;;;15.70;96.70;;;;;;5405887;26;20003;-74
2024/04/10 08:32:53;;;;;;;1.33;0.28;;;15.70;96.70;;;;;;5406635;26;20000;-74
2024/04/10 08:35:21;;;;;;;4.22;0.60;;;15.60;96.70;;;;;;5373882;26;20024;-74
2024/04/10 08:37:53;;;;;;;2.28;0.50;;;15.70;96.70;;;;;;5406413;26;20055;-74
2024/04/10 08:40:22;;;;;;;1.00;0.50;;;15.70;96.70;;;;;;5406926;26;20018;-74
2024/04/10 08:42:52;;;;;;;1.35;0.60;;;15.70;96.70;;;;;;5379292;26;20014;-75
2024/04/10 08:45:25;;;;;;;1.00;0.60;;;15.60;96.70;;;;;;5403438;26;19999;-75
2024/04/10 08:48:03;;;;;;;1.38;0.75;;;15.60;96.70;;;;;;5407285;26;20058;-74
2024/04/10 08:50:35;;;;;;;1.00;0.60;;;15.50;96.70;;;;;;5406785;26;20011;-74
2024/04/10 08:53:07;;;;;;;3.28;0.75;;;15.50;96.70;;;;;;5406642;26;20452;-75
2024/04/10 08:55:36;;;;;;;5.28;1.00;;;15.60;96.70;;;;;;5406383;26;20077;-74
2024/04/10 08:58:17;;;;;;;2.22;0.60;;;15.60;96.70;;;;;;5406017;26;20000;-73
2024/04/10 09:00:47;;;;;;;1.38;0.50;;;15.50;96.70;;;;;;5406632;26;19999;-74
2024/04/10 09:03:21;;;;;;;1.42;0.47;;;15.60;96.70;;;;;;5404582;26;20039;-75
2024/04/10 09:05:50;;;;;;;1.10;0.60;;;15.70;96.70;;;;;;5378359;26;20003;-74
2024/04/10 09:08:19;;;;;;;2.03;0.80;;;15.80;96.70;;;;;;5397681;26;20077;-74
2024/04/10 09:10:53;;;;;;;3.28;0.90;;;15.80;96.70;;;;;;5406677;26;20000;-74
2024/04/10 09:13:24;;;;;;;3.70;0.90;;;15.80;96.70;;;;;;5406624;26;20027;-74
2024/04/10 09:15:57;;;;;;;3.08;1.20;;;15.80;96.70;;;;;;5405629;26;20084;-74
2024/04/10 09:18:30;;;;;;;1.77;1.08;;;15.90;96.70;;;;;;5404897;26;20027;-74
2024/04/10 09:21:09;;;;;;;1.52;1.05;;;16.00;96.70;;;;;;5405623;26;20845;-75
2024/04/10 09:23:38;;;;;;;3.58;1.20;;;16.10;96.70;;;;;;5406158;26;20007;-75
2024/04/10 09:26:15;;;;;;;2.13;1.00;;;16.30;96.70;;;;;;5408044;26;20320;-74
2024/04/10 09:28:44;;;;;;;3.13;1.38;;;16.40;96.70;;;;;;5406714;26;20003;-74
2024/04/10 09:31:21;;;;;;;2.60;1.30;;;16.60;96.70;;;;;;5401964;26;20004;-74
2024/04/10 09:33:55;;;;;;;2.20;1.20;;;16.40;96.70;;;;;;5406674;26;20748;-75
2024/04/10 09:36:24;;;;;;;2.47;1.30;;;16.50;96.70;;;;;;5403604;26;20035;-74
2024/04/10 09:38:56;;;;;;;2.92;1.20;;;16.70;96.70;;;;;;5398045;26;20007;-75
2024/04/10 09:41:28;;;;;;;1.52;0.80;;;16.70;96.70;;;;;;5372088;26;20001;-75
2024/04/10 09:43:59;;;;;;;3.25;0.90;;;16.90;96.70;;;;;;5371144;26;20011;-74
2024/04/10 09:46:36;;;;;;;1.63;1.00;;;17.00;96.70;;;;;;5400127;26;20076;-74
2024/04/10 09:49:11;;;;;;;1.88;1.00;;;17.00;96.70;;;;;;5351291;26;20171;-75
2024/04/10 09:51:44;;;;;;;1.15;0.98;;;17.10;96.70;;;;;;5403629;26;20015;-74
2024/04/10 09:54:13;;;;;;;2.67;1.42;;;17.10;96.70;;;;;;5404354;26;20000;-74
2024/04/10 09:56:43;;;;;;;1.73;1.20;;;17.20;96.70;;;;;;5406331;26;20011;-74
2024/04/10 09:59:15;;;;;;;3.08;1.35;;;17.20;96.70;;;;;;5406313;26;20000;-75
2024/04/10 10:01:44;;;;;;;4.97;1.50;;;17.30;96.70;;;;;;5406064;26;20093;-74
2024/04/10 10:04:18;;;;;;;4.60;1.45;;;17.20;96.70;;;;;;5404887;26;20007;-74
2024/04/10 10:06:47;;;;;;;4.68;1.52;;;17.20;96.70;;;;;;5428915;26;20497;-75
2024/04/10 10:09:24;;;;;;;4.25;1.80;;;17.20;96.70;;;;;;5430116;26;20002;-75
2024/04/10 10:11:59;;;;;;;3.65;1.50;;;17.20;96.70;;;;;;5372686;26;20437;-74
2024/04/10 10:14:30;;;;;;;1.77;0.90;;;17.20;96.70;;;;;;5372809;26;19997;-74
2024/04/10 10:17:10;;;;;;;4.30;0.85;;;17.30;96.70;;;;;;5371120;26;20012;-74
2024/04/10 10:19:41;;;;;;;2.72;0.90;;;17.40;96.70;;;;;;5377174;26;20001;-74
2024/04/10 10:22:17;;;;;;;2.22;0.80;;;17.50;96.70;;;;;;5465019;26;20821;-74
2024/04/10 10:24:57;;;;;;;4.82;0.90;;;17.60;96.70;;;;;;5399119;26;20016;-74
2024/04/10 10:27:30;;;;;;;1.83;0.90;;;17.70;96.70;;;;;;5378450;26;20019;-74
2024/04/10 10:30:06;;;;;;;3.15;0.93;;;17.70;96.70;;;;;;5439454;26;19995;-74
2024/04/10 10:32:36;;;;;;;2.20;0.53;;;17.90;96.70;;;;;;5409378;26;19999;-73
2024/04/10 10:35:11;;;;;;;2.55;0.43;;;17.90;96.70;;;;;;5375682;26;20086;-74
2024/04/10 10:37:44;;;;;;;2.17;0.52;;;18.10;96.70;;;;;;5409528;26;20015;-74
2024/04/10 10:40:18;;;;;;;2.10;0.70;;;18.00;96.70;;;;;;5402171;26;20020;-74
2024/04/10 10:42:57;;;;;;;2.15;0.73;;;18.00;96.70;;;;;;5373857;26;20077;-74
2024/04/10 10:45:28;;;;;;;2.97;0.70;;;18.00;96.70;;;;;;5395835;26;20004;-73
2024/04/10 10:47:57;;;;;;;3.85;0.70;;;18.00;96.70;;;;;;5423640;26;20012;-75
2024/04/10 10:50:30;;;;;;;2.35;1.00;;;17.90;96.70;;;;;;5442683;26;20055;-75
2024/04/10 10:53:03;;;;;;;3.50;1.10;;;17.90;96.70;;;;;;5422413;26;20013;-74
2024/04/10 10:55:34;;;;;;;6.80;1.20;;;17.60;96.70;;;;;;5392997;26;20014;-74
2024/04/10 10:58:03;;;;;;;3.08;0.93;;;17.60;96.70;;;;;;5418081;26;20363;-75
2024/04/10 11:00:35;;;;;;;3.90;1.13;;;17.60;96.70;;;;;;5415852;26;20077;-73
2024/04/10 11:03:06;;;;;;;1.98;1.10;;;17.60;96.70;;;;;;5419258;26;20015;-74
2024/04/10 11:05:54;;;;;;;3.33;0.73;;;17.60;96.70;;;;;;5418213;26;20444;-73
2024/04/10 11:08:24;;;;;;;2.17;0.70;;;17.50;96.70;;;;;;5416399;26;20144;-74
2024/04/10 11:10:53;;;;;;;1.80;0.50;;;17.40;96.70;;;;;;5463204;26;19999;-74
2024/04/10 11:13:24;;;;;;;2.60;0.70;;;17.50;96.70;;;;;;5413372;26;20088;-74
2024/04/10 11:15:57;;;;;;;3.35;0.68;;;17.60;96.70;;;;;;5419577;26;19997;-73
2024/04/10 11:18:25;;;;;;;1.27;0.60;;;17.70;96.70;;;;;;5406060;26;20000;-74
2024/04/10 11:20:57;;;;;;;2.42;0.50;;;17.90;96.70;;;;;;5394173;26;20085;-75
2024/04/10 11:23:28;;;;;;;2.03;0.50;;;17.90;96.70;;;;;;5388021;26;20107;-74
2024/04/10 11:25:58;;;;;;;2.33;0.80;;;18.10;96.70;;;;;;5429369;26;20014;-74
2024/04/10 11:28:28;;;;;;;1.95;0.82;;;18.20;96.70;;;;;;5434187;26;20568;-72
2024/04/10 11:30:57;;;;;;;3.92;1.20;;;18.10;96.70;;;;;;5412152;26;20003;-74
2024/04/10 11:33:25;;;;;;;3.20;1.30;;;18.20;96.70;;;;;;5444200;26;20102;-74
2024/04/10 11:35:59;;;;;;;3.13;1.25;;;18.40;96.70;;;;;;5419591;26;20050;-74
2024/04/10 11:38:30;;;;;;;2.40;1.38;;;18.70;96.70;;;;;;5423241;26;20004;-73
2024/04/10 11:40:59;;;;;;;2.58;1.30;;;18.80;96.70;;;;;;5383204;26;20840;-74
2024/04/10 11:43:32;;;;;;;2.70;1.35;;;18.80;96.70;;;;;;5415556;26;20049;-74
2024/04/10 11:46:02;;;;;;;2.45;1.20;;;18.70;96.70;;;;;;5384760;26;20861;-74
2024/04/10 11:48:32;;;;;;;2.33;1.15;;;18.60;96.70;;;;;;5436836;26;20116;-72
2024/04/10 11:51:05;;;;;;;2.58;1.02;;;18.50;96.70;;;;;;5398901;26;20064;-73
2024/04/10 11:53:34;;;;;;;3.78;1.30;;;18.50;96.70;;;;;;5418787;26;20620;-74
2024/04/10 11:56:03;;;;;;;1.60;0.88;;;18.60;96.70;;;;;;5406716;26;20004;-74
2024/04/10 11:58:31;;;;;;;3.95;1.02;;;18.60;96.70;;;;;;5466676;26;20004;-73
2024/04/10 12:01:00;;;;;;;4.38;1.10;;;18.70;96.70;;;;;;5404920;26;20453;-73
2024/04/10 12:03:29;;;;;;;2.70;1.00;;;18.50;96.70;;;;;;5415781;26;20011;-73
2024/04/10 12:06:04;;;;;;;2.25;1.00;;;18.60;96.70;;;;;;5373532;26;20059;-73
2024/04/10 12:08:37;;;;;;;2.88;0.98;;;18.50;96.70;;;;;;5405913;26;20038;-74
2024/04/10 12:11:06;;;;;;;1.63;0.70;;;18.50;96.70;;;;;;5407393;26;19995;-74
2024/04/10 12:13:40;;;;;;;3.03;0.90;;;18.50;96.70;;;;;;5425854;26;20003;-75
2024/04/10 12:16:10;;;;;;;2.53;1.38;;;18.90;96.70;;;;;;5412917;26;20007;-73
2024/04/10 12:18:40;;;;;;;3.83;1.88;;;19.10;96.70;;;;;;5405537;26;20419;-75
2024/04/10 12:21:08;;;;;;;4.25;2.20;;;19.00;96.70;;;;;;5415083;26;20259;-73
2024/04/10 12:23:40;;;;;;;3.50;2.50;;;18.80;96.70;;;;;;5423377;26;20010;-73
2024/04/10 12:26:12;;;;;;;2.92;2.30;;;18.90;96.70;;;;;;5428362;26;20010;-76
2024/04/10 12:28:42;;;;;;;4.18;2.40;;;19.10;96.70;;;;;;5411821;26;19995;-75
2024/04/10 12:31:12;;;;;;;1.98;1.73;;;19.10;96.70;;;;;;5420511;26;20048;-76
2024/04/10 12:33:41;;;;;;;3.95;1.90;;;19.00;96.70;;;;;;5415158;26;20191;-73
2024/04/10 12:39:00;;;;;;;;;;;18.90;96.70;;;;;;5442523;26;19998;-76
2024/04/10 12:41:29;;;;;;;3.13;1.60;;;19.10;96.70;;;;;;5412874;26;20023;-75
2024/04/10 12:44:02;;;;;;;2.28;1.40;;;19.40;96.70;;;;;;5363004;26;20534;-74
2024/04/10 12:46:35;;;;;;;1.75;1.05;;;19.30;96.70;;;;;;5422773;26;20002;-75
2024/04/10 12:49:04;;;;;;;3.38;1.70;;;19.40;96.70;;;;;;5439514;26;20011;-74
2024/04/10 12:51:33;;;;;;;2.70;1.83;;;19.60;96.70;;;;;;5422002;26;20016;-74
2024/04/10 12:54:04;;;;;;;4.97;2.13;;;19.70;96.70;;;;;;5403932;26;19999;-74
2024/04/10 12:56:33;;;;;;;9.15;2.28;;;19.90;96.70;;;;;;5424088;26;20469;-74
2024/04/10 12:59:02;;;;;;;3.13;2.10;;;20.10;96.70;;;;;;5403011;26;20007;-74
2024/04/10 13:01:31;;;;;;;3.75;1.98;;;20.20;96.70;;;;;;5374823;26;20449;-74
2024/04/10 13:04:00;;;;;;;5.03;2.55;;;20.40;96.70;;;;;;5425310;26;20004;-74
2024/04/10 13:06:29;;;;;;;3.22;2.25;;;20.60;96.70;;;;;;5378859;26;20415;-74
2024/04/10 13:08:59;;;;;;;6.03;1.90;;;20.80;96.70;;;;;;5406993;26;20003;-74
2024/04/10 13:11:31;;;;;;;3.40;1.75;;;20.90;96.70;;;;;;5406778;26;20000;-73
2024/04/10 13:14:01;;;;;;;3.53;1.80;;;20.80;96.70;;;;;;5407263;26;20018;-74
2024/04/10 13:16:31;;;;;;;2.88;1.38;;;20.80;96.70;;;;;;5403847;26;20004;-73
2024/04/10 13:19:03;;;;;;;1.85;1.10;;;20.90;96.70;;;;;;5379514;26;20849;-74